Terminal Aerodrome Forecast
Issued by NWS

Home | Current Version | Previous Version | Text Only | Print | Product List | Glossary On
Versions: 1 2 3 4 5 6 7 8 9 10 11 12 13 14
000
FTUS44 KEPZ 282323
TAFTCS
TAF
KTCS 282323Z 2900/2924 34006KT P6SM VCTS SCT060CB BKN200
     FM290500 35008KT P6SM SCT040 SCT100
     FM291800 05010KT P6SM VCTS SCT040CB BKN100=

USA.gov is the U.S. government's official web portal to all federal, state and local government web resources and services.